Time,TemperatureF,DewpointF,PressureIn,WindDirection,WindDirectionDegrees,WindSpeedMPH,WindSpeedGustMPH,Humidity,HourlyPrecipIn,Conditions,Clouds,dailyrainin,SoftwareType,DateUTC
2015-09-03 00:03:00,59.0,44.0,29.93,SSW,199,0.0,0.0,58,-99.99,,,-99.99,,2015-09-03 07:03:00,
2015-09-03 00:12:00,59.0,44.0,29.93,SSW,199,0.0,0.0,58,-99.99,,,-99.99,,2015-09-03 07:12:00,
2015-09-03 00:23:00,59.0,44.0,29.93,SSW,199,0.0,0.0,58,-99.99,,,-99.99,,2015-09-03 07:23:00,
2015-09-03 00:33:00,58.0,44.0,29.93,SSW,199,0.0,0.0,60,-99.99,,,-99.99,,2015-09-03 07:33:00,
2015-09-03 00:43:00,58.0,44.0,29.93,SSW,199,0.0,0.0,60,-99.99,,,-99.99,,2015-09-03 07:43:00,
2015-09-03 00:53:00,58.0,44.0,29.93,SSW,199,0.0,0.0,60,-99.99,,,-99.99,,2015-09-03 07:53:00,
2015-09-03 01:02:00,58.0,44.0,29.93,SSW,199,0.0,0.0,60,-99.99,,,-99.99,,2015-09-03 08:02:00,
2015-09-03 01:12:00,58.0,44.0,29.93,SSW,199,0.0,0.0,60,-99.99,,,-99.99,,2015-09-03 08:12:00,
2015-09-03 01:23:00,55.0,44.0,29.93,SSW,199,0.0,0.0,67,-99.99,,,-99.99,,2015-09-03 08:23:00,
2015-09-03 01:33:00,55.0,44.0,29.93,SSW,199,0.0,0.0,67,-99.99,,,-99.99,,2015-09-03 08:33:00,
2015-09-03 01:44:00,53.0,44.0,29.94,SSW,199,0.0,0.0,71,-99.99,,,-99.99,,2015-09-03 08:44:00,
2015-09-03 01:53:00,53.0,44.0,29.94,SSW,199,0.0,0.0,71,-99.99,,,-99.99,,2015-09-03 08:53:00,
2015-09-03 02:02:00,52.0,44.0,29.94,SSW,199,0.0,0.0,73,-99.99,,,-99.99,,2015-09-03 09:02:00,
2015-09-03 02:12:00,51.0,43.0,29.94,SSW,199,0.0,0.0,75,-99.99,,,-99.99,,2015-09-03 09:12:00,
2015-09-03 02:22:00,51.0,43.0,29.94,SSW,199,0.0,0.0,75,-99.99,,,-99.99,,2015-09-03 09:22:00,
2015-09-03 02:33:00,51.0,43.0,29.94,SSW,199,0.0,0.0,75,-99.99,,,-99.99,,2015-09-03 09:33:00,
2015-09-03 02:43:00,51.0,44.0,29.94,SSW,199,0.0,0.0,76,-99.99,,,-99.99,,2015-09-03 09:43:00,
2015-09-03 02:53:00,51.0,44.0,29.94,SSW,199,0.0,0.0,76,-99.99,,,-99.99,,2015-09-03 09:53:00,
2015-09-03 03:03:00,51.0,44.0,29.94,SSW,199,0.0,0.0,77,-99.99,,,-99.99,,2015-09-03 10:03:00,
2015-09-03 03:12:00,50.0,43.0,29.94,SSW,199,0.0,0.0,77,-99.99,,,-99.99,,2015-09-03 10:12:00,
2015-09-03 03:23:00,50.0,43.0,29.94,SSW,199,0.0,0.0,77,-99.99,,,-99.99,,2015-09-03 10:23:00,
2015-09-03 03:33:00,49.0,42.0,29.95,SSW,199,0.0,0.0,78,-99.99,,,-99.99,,2015-09-03 10:33:00,
2015-09-03 03:43:00,49.0,42.0,29.95,SSW,199,0.0,0.0,78,-99.99,,,-99.99,,2015-09-03 10:43:00,
2015-09-03 03:53:00,49.0,42.0,29.95,SSW,199,0.0,0.0,78,-99.99,,,-99.99,,2015-09-03 10:53:00,
2015-09-03 04:03:00,48.0,42.0,29.95,SSW,199,0.0,0.0,80,-99.99,,,-99.99,,2015-09-03 11:03:00,
2015-09-03 04:12:00,48.0,42.0,29.95,SSW,199,0.0,0.0,80,-99.99,,,-99.99,,2015-09-03 11:12:00,
2015-09-03 04:23:00,47.0,42.0,29.95,SSW,199,0.0,0.0,82,-99.99,,,-99.99,,2015-09-03 11:23:00,
2015-09-03 04:33:00,46.0,41.0,29.96,SSW,199,0.0,0.0,82,-99.99,,,-99.99,,2015-09-03 11:33:00,
2015-09-03 04:43:00,45.0,40.0,29.96,SSW,199,0.0,0.0,83,-99.99,,,-99.99,,2015-09-03 11:43:00,
2015-09-03 04:53:00,45.0,40.0,29.96,SSW,199,0.0,0.0,83,-99.99,,,-99.99,,2015-09-03 11:53:00,
2015-09-03 05:03:00,44.0,39.0,29.96,SSW,199,0.0,0.0,84,-99.99,,,-99.99,,2015-09-03 12:03:00,
2015-09-03 05:12:00,44.0,39.0,29.97,SSW,199,0.0,0.0,84,-99.99,,,-99.99,,2015-09-03 12:12:00,
2015-09-03 05:23:00,44.0,40.0,29.97,SSW,199,0.0,0.0,85,-99.99,,,-99.99,,2015-09-03 12:23:00,
2015-09-03 05:33:00,43.0,39.0,29.97,SSW,199,0.0,0.0,85,-99.99,,,-99.99,,2015-09-03 12:33:00,
2015-09-03 05:53:00,43.0,39.0,29.97,SSW,199,0.0,0.0,86,-99.99,,,-99.99,,2015-09-03 12:53:00,
2015-09-03 06:03:00,43.0,39.0,29.97,SSW,199,0.0,0.0,86,-99.99,,,-99.99,,2015-09-03 13:03:00,
2015-09-03 06:13:00,43.0,39.0,29.97,SSW,199,0.0,0.0,86,-99.99,,,-99.99,,2015-09-03 13:13:00,
2015-09-03 06:23:00,42.0,38.0,29.97,SSW,199,0.0,0.0,86,-99.99,,,-99.99,,2015-09-03 13:23:00,
2015-09-03 06:33:00,42.0,38.0,29.98,SSW,199,0.0,0.0,86,-99.99,,,-99.99,,2015-09-03 13:33:00,
2015-09-03 06:43:00,42.0,38.0,29.98,SSW,199,0.0,0.0,87,-99.99,,,-99.99,,2015-09-03 13:43:00,
2015-09-03 06:53:00,42.0,38.0,29.98,SSW,199,0.0,0.0,87,-99.99,,,-99.99,,2015-09-03 13:53:00,
2015-09-03 07:02:00,42.0,38.0,29.98,SSW,199,0.0,0.0,87,-99.99,,,-99.99,,2015-09-03 14:02:00,
2015-09-03 07:12:00,42.0,38.0,29.99,SSW,199,0.0,0.0,87,-99.99,,,-99.99,,2015-09-03 14:12:00,
2015-09-03 07:23:00,42.0,38.0,29.99,SSW,199,0.0,0.0,87,-99.99,,,-99.99,,2015-09-03 14:23:00,
2015-09-03 07:33:00,42.0,38.0,29.99,SSW,199,0.0,0.0,87,-99.99,,,-99.99,,2015-09-03 14:33:00,
2015-09-03 07:43:00,43.0,39.0,29.99,SSW,199,0.0,0.0,87,-99.99,,,-99.99,,2015-09-03 14:43:00,
2015-09-03 07:53:00,43.0,39.0,29.99,SSW,199,0.0,0.0,87,-99.99,,,-99.99,,2015-09-03 14:53:00,
2015-09-03 08:03:00,44.0,40.0,30.00,SSW,199,0.0,0.0,87,-99.99,,,-99.99,,2015-09-03 15:03:00,
2015-09-03 08:12:00,44.0,40.0,30.00,SSW,199,0.0,0.0,87,-99.99,,,-99.99,,2015-09-03 15:12:00,
2015-09-03 08:22:00,44.0,40.0,30.00,SSW,199,0.0,0.0,87,-99.99,,,-99.99,,2015-09-03 15:22:00,
2015-09-03 08:33:00,46.0,42.0,30.00,SSW,199,0.0,0.0,87,-99.99,,,-99.99,,2015-09-03 15:33:00,
2015-09-03 08:43:00,47.0,43.0,30.00,SSW,199,0.0,0.0,87,-99.99,,,-99.99,,2015-09-03 15:43:00,
2015-09-03 08:53:00,48.0,44.0,30.01,SSW,199,0.0,0.0,86,-99.99,,,-99.99,,2015-09-03 15:53:00,
2015-09-03 09:03:00,49.0,44.0,30.00,SSW,199,0.0,0.0,84,-99.99,,,-99.99,,2015-09-03 16:03:00,
2015-09-03 09:12:00,50.0,44.0,30.00,SSW,199,0.0,0.0,81,-99.99,,,-99.99,,2015-09-03 16:12:00,
2015-09-03 09:23:00,52.0,45.0,30.00,SSW,199,0.0,0.0,78,-99.99,,,-99.99,,2015-09-03 16:23:00,
2015-09-03 09:33:00,53.0,45.0,30.00,SSW,199,0.0,0.0,75,-99.99,,,-99.99,,2015-09-03 16:33:00,
2015-09-03 09:45:00,54.0,45.0,30.00,South,175,0.0,0.0,72,-99.99,,,-99.99,,2015-09-03 16:45:00,
2015-09-03 09:53:00,54.0,45.0,30.00,South,175,0.0,0.0,72,-99.99,,,-99.99,,2015-09-03 16:53:00,
2015-09-03 10:03:00,54.0,44.0,29.99,South,175,0.0,0.0,70,-99.99,,,-99.99,,2015-09-03 17:03:00,
2015-09-03 10:13:00,55.0,45.0,29.99,South,175,0.0,0.0,70,-99.99,,,-99.99,,2015-09-03 17:13:00,
2015-09-03 10:23:00,55.0,45.0,29.99,South,175,0.0,0.0,70,-99.99,,,-99.99,,2015-09-03 17:23:00,
2015-09-03 10:33:00,58.0,45.0,29.99,South,176,0.0,2.0,63,-99.99,,,-99.99,,2015-09-03 17:33:00,
2015-09-03 10:43:00,58.0,45.0,29.99,South,176,0.0,2.0,63,-99.99,,,-99.99,,2015-09-03 17:43:00,
2015-09-03 10:54:00,58.0,45.0,29.99,South,176,0.0,2.0,63,-99.99,,,-99.99,,2015-09-03 17:54:00,
2015-09-03 11:05:00,60.0,44.0,29.98,South,190,0.0,5.0,55,-99.99,,,-99.99,,2015-09-03 18:05:00,
2015-09-03 11:12:00,61.0,44.0,29.98,SSE,163,0.0,0.0,54,-99.99,,,-99.99,,2015-09-03 18:12:00,
2015-09-03 11:23:00,61.0,43.0,29.98,SSW,209,0.0,1.0,52,-99.99,,,-99.99,,2015-09-03 18:23:00,
2015-09-03 11:33:00,62.0,42.0,29.97,South,182,1.0,5.0,48,-99.99,,,-99.99,,2015-09-03 18:33:00,
2015-09-03 11:44:00,62.0,42.0,29.97,South,182,1.0,5.0,48,-99.99,,,-99.99,,2015-09-03 18:44:00,
2015-09-03 11:53:00,62.0,42.0,29.97,South,182,1.0,5.0,48,-99.99,,,-99.99,,2015-09-03 18:53:00,
2015-09-03 12:03:00,64.0,42.0,29.96,SSW,198,0.0,2.0,44,-99.99,,,-99.99,,2015-09-03 19:03:00,
2015-09-03 12:14:00,65.0,38.0,29.96,SSW,203,0.0,3.0,37,-99.99,,,-99.99,,2015-09-03 19:14:00,
2015-09-03 12:23:00,66.0,38.0,29.96,South,173,0.0,6.0,35,-99.99,,,-99.99,,2015-09-03 19:23:00,
2015-09-03 12:33:00,66.0,39.0,29.95,SSE,163,0.0,6.0,37,-99.99,,,-99.99,,2015-09-03 19:33:00,
2015-09-03 12:44:00,67.0,41.0,29.95,South,175,0.0,6.0,39,-99.99,,,-99.99,,2015-09-03 19:44:00,
2015-09-03 12:53:00,67.0,38.0,29.94,ENE,58,1.0,5.0,35,-99.99,,,-99.99,,2015-09-03 19:53:00,
2015-09-03 13:03:00,67.0,40.0,29.94,SSW,198,1.0,4.0,37,-99.99,,,-99.99,,2015-09-03 20:03:00,
2015-09-03 13:12:00,69.0,40.0,29.94,South,169,0.0,4.0,35,-99.99,,,-99.99,,2015-09-03 20:12:00,
2015-09-03 13:22:00,69.0,40.0,29.93,South,184,0.0,5.0,35,-99.99,,,-99.99,,2015-09-03 20:22:00,
2015-09-03 13:33:00,69.0,40.0,29.93,South,184,0.0,5.0,35,-99.99,,,-99.99,,2015-09-03 20:33:00,
2015-09-03 13:43:00,68.0,39.0,29.93,SSW,213,0.0,4.0,35,-99.99,,,-99.99,,2015-09-03 20:43:00,
2015-09-03 14:03:00,69.0,40.0,29.93,SSE,164,0.0,8.0,35,-99.99,,,-99.99,,2015-09-03 21:03:00,
2015-09-03 14:12:00,70.0,40.0,29.92,SSW,192,1.0,4.0,34,-99.99,,,-99.99,,2015-09-03 21:12:00,
2015-09-03 14:23:00,70.0,40.0,29.92,SSW,192,1.0,4.0,34,-99.99,,,-99.99,,2015-09-03 21:23:00,
2015-09-03 14:33:00,71.0,40.0,29.92,West,280,0.0,5.0,32,-99.99,,,-99.99,,2015-09-03 21:33:00,
2015-09-03 14:43:00,71.0,40.0,29.91,South,189,1.0,9.0,32,-99.99,,,-99.99,,2015-09-03 21:43:00,
2015-09-03 14:53:00,71.0,39.0,29.91,SSW,211,1.0,5.0,31,-99.99,,,-99.99,,2015-09-03 21:53:00,
2015-09-03 15:12:00,72.0,38.0,29.90,SSW,194,1.0,-999.0,29,-99.99,,,-99.99,,2015-09-03 22:12:00,
2015-09-03 15:23:00,72.0,38.0,29.90,SSW,194,1.0,5.0,29,-99.99,,,-99.99,,2015-09-03 22:23:00,
2015-09-03 15:33:00,72.0,38.0,29.90,SSW,194,1.0,5.0,29,-99.99,,,-99.99,,2015-09-03 22:33:00,
2015-09-03 15:43:00,72.0,39.0,29.90,West,266,1.0,9.0,30,-99.99,,,-99.99,,2015-09-03 22:43:00,
2015-09-03 16:23:00,71.0,37.0,29.89,ESE,107,1.0,12.0,29,-99.99,,,-99.99,,2015-09-03 23:23:00,
2015-09-03 16:35:00,71.0,37.0,29.88,South,172,0.0,12.0,29,-99.99,,,-99.99,,2015-09-03 23:35:00,
2015-09-03 16:44:00,71.0,37.0,29.88,West,274,0.0,4.0,29,-99.99,,,-99.99,,2015-09-03 23:44:00,
2015-09-03 16:54:00,71.0,37.0,29.88,West,273,1.0,5.0,29,-99.99,,,-99.99,,2015-09-03 23:54:00,
2015-09-03 17:03:00,72.0,38.0,29.88,NW,315,1.0,5.0,29,-99.99,,,-99.99,,2015-09-04 00:03:00,
2015-09-03 17:12:00,72.0,38.0,29.88,WNW,284,0.0,3.0,29,-99.99,,,-99.99,,2015-09-04 00:12:00,
2015-09-03 17:33:00,71.0,37.0,29.87,West,263,0.0,4.0,29,-99.99,,,-99.99,,2015-09-04 00:33:00,
2015-09-03 17:43:00,71.0,37.0,29.87,West,263,0.0,4.0,29,-99.99,,,-99.99,,2015-09-04 00:43:00,
2015-09-03 18:02:00,70.0,36.0,29.87,South,176,0.0,2.0,29,-99.99,,,-99.99,,2015-09-04 01:02:00,
2015-09-03 18:12:00,70.0,38.0,29.87,WSW,238,0.0,0.0,31,-99.99,,,-99.99,,2015-09-04 01:12:00,
2015-09-03 18:23:00,70.0,37.0,29.87,West,268,0.0,2.0,30,-99.99,,,-99.99,,2015-09-04 01:23:00,